sensor_id;sensor_type;location;lat;lon;timestamp;P1;durP1;ratioP1;P2;durP2;ratioP2
61960;SDS011;47923;42.506;24.192;2023-07-31T00:02:04;8.75;;;4.18;;
61960;SDS011;47923;42.506;24.192;2023-07-31T00:04:51;7.50;;;4.43;;
61960;SDS011;47923;42.506;24.192;2023-07-31T00:07:19;8.00;;;4.60;;
61960;SDS011;47923;42.506;24.192;2023-07-31T00:10:08;12.60;;;4.32;;
61960;SDS011;47923;42.506;24.192;2023-07-31T00:12:47;10.88;;;4.40;;
61960;SDS011;47923;42.506;24.192;2023-07-31T00:15:25;9.38;;;4.70;;
61960;SDS011;47923;42.506;24.192;2023-07-31T00:17:53;7.85;;;4.60;;
61960;SDS011;47923;42.506;24.192;2023-07-31T00:20:30;6.75;;;4.40;;
61960;SDS011;47923;42.506;24.192;2023-07-31T00:22:56;7.32;;;4.97;;
61960;SDS011;47923;42.506;24.192;2023-07-31T00:25:45;8.50;;;5.22;;
61960;SDS011;47923;42.506;24.192;2023-07-31T00:28:13;8.93;;;4.75;;
61960;SDS011;47923;42.506;24.192;2023-07-31T00:30:44;8.52;;;5.05;;
61960;SDS011;47923;42.506;24.192;2023-07-31T00:33:19;9.13;;;5.43;;
61960;SDS011;47923;42.506;24.192;2023-07-31T00:35:50;7.95;;;5.50;;
61960;SDS011;47923;42.506;24.192;2023-07-31T00:38:20;9.57;;;5.40;;
61960;SDS011;47923;42.506;24.192;2023-07-31T00:40:51;8.18;;;5.30;;
61960;SDS011;47923;42.506;24.192;2023-07-31T00:43:16;10.40;;;5.78;;
61960;SDS011;47923;42.506;24.192;2023-07-31T00:45:50;8.88;;;6.15;;
61960;SDS011;47923;42.506;24.192;2023-07-31T00:48:21;8.90;;;6.30;;
61960;SDS011;47923;42.506;24.192;2023-07-31T00:50:57;8.93;;;5.75;;
61960;SDS011;47923;42.506;24.192;2023-07-31T00:53:26;9.70;;;6.72;;
61960;SDS011;47923;42.506;24.192;2023-07-31T00:55:52;8.30;;;6.22;;
61960;SDS011;47923;42.506;24.192;2023-07-31T00:58:20;9.48;;;6.18;;
61960;SDS011;47923;42.506;24.192;2023-07-31T01:00:49;9.80;;;7.45;;
61960;SDS011;47923;42.506;24.192;2023-07-31T01:03:18;9.23;;;7.22;;
61960;SDS011;47923;42.506;24.192;2023-07-31T01:11:33;9.55;;;7.20;;
61960;SDS011;47923;42.506;24.192;2023-07-31T01:14:13;10.95;;;8.40;;
61960;SDS011;47923;42.506;24.192;2023-07-31T01:16:43;9.98;;;7.60;;
61960;SDS011;47923;42.506;24.192;2023-07-31T01:19:11;10.00;;;7.38;;
61960;SDS011;47923;42.506;24.192;2023-07-31T01:27:34;8.90;;;7.20;;
61960;SDS011;47923;42.506;24.192;2023-07-31T01:30:21;10.05;;;7.53;;
61960;SDS011;47923;42.506;24.192;2023-07-31T01:32:50;9.93;;;7.22;;
61960;SDS011;47923;42.506;24.192;2023-07-31T01:35:26;10.10;;;7.47;;
61960;SDS011;47923;42.506;24.192;2023-07-31T01:38:15;13.32;;;7.18;;
61960;SDS011;47923;42.506;24.192;2023-07-31T01:41:04;9.52;;;7.32;;
61960;SDS011;47923;42.506;24.192;2023-07-31T01:43:33;10.70;;;8.13;;
61960;SDS011;47923;42.506;24.192;2023-07-31T01:46:04;10.88;;;8.20;;
61960;SDS011;47923;42.506;24.192;2023-07-31T01:48:32;12.60;;;8.32;;
61960;SDS011;47923;42.506;24.192;2023-07-31T01:51:04;11.23;;;8.25;;
61960;SDS011;47923;42.506;24.192;2023-07-31T01:53:30;11.38;;;8.65;;
61960;SDS011;47923;42.506;24.192;2023-07-31T01:56:04;10.48;;;8.13;;
61960;SDS011;47923;42.506;24.192;2023-07-31T01:58:32;12.98;;;9.40;;
61960;SDS011;47923;42.506;24.192;2023-07-31T02:01:03;11.38;;;7.70;;
61960;SDS011;47923;42.506;24.192;2023-07-31T02:03:57;9.27;;;7.93;;
61960;SDS011;47923;42.506;24.192;2023-07-31T02:06:44;11.00;;;8.15;;
61960;SDS011;47923;42.506;24.192;2023-07-31T02:09:15;11.75;;;8.90;;
61960;SDS011;47923;42.506;24.192;2023-07-31T02:11:43;9.75;;;8.32;;
61960;SDS011;47923;42.506;24.192;2023-07-31T02:14:16;9.82;;;7.57;;
61960;SDS011;47923;42.506;24.192;2023-07-31T02:16:44;12.07;;;9.43;;
61960;SDS011;47923;42.506;24.192;2023-07-31T02:19:12;11.82;;;8.98;;
61960;SDS011;47923;42.506;24.192;2023-07-31T02:21:38;10.57;;;8.30;;
61960;SDS011;47923;42.506;24.192;2023-07-31T02:24:12;12.85;;;8.73;;
61960;SDS011;47923;42.506;24.192;2023-07-31T02:26:51;11.35;;;9.20;;
61960;SDS011;47923;42.506;24.192;2023-07-31T02:29:29;11.02;;;7.97;;
61960;SDS011;47923;42.506;24.192;2023-07-31T02:32:18;10.73;;;8.52;;
61960;SDS011;47923;42.506;24.192;2023-07-31T02:34:45;8.50;;;6.95;;
61960;SDS011;47923;42.506;24.192;2023-07-31T02:37:44;10.88;;;7.55;;
61960;SDS011;47923;42.506;24.192;2023-07-31T02:40:27;10.57;;;7.55;;
61960;SDS011;47923;42.506;24.192;2023-07-31T02:43:08;9.85;;;7.93;;
61960;SDS011;47923;42.506;24.192;2023-07-31T02:45:50;10.38;;;8.23;;
61960;SDS011;47923;42.506;24.192;2023-07-31T02:48:39;9.77;;;7.70;;
61960;SDS011;47923;42.506;24.192;2023-07-31T02:51:27;12.45;;;8.60;;
61960;SDS011;47923;42.506;24.192;2023-07-31T02:56:29;10.68;;;8.18;;
61960;SDS011;47923;42.506;24.192;2023-07-31T02:59:00;10.85;;;8.52;;
61960;SDS011;47923;42.506;24.192;2023-07-31T03:01:37;11.20;;;8.23;;
61960;SDS011;47923;42.506;24.192;2023-07-31T03:04:14;11.93;;;8.95;;
61960;SDS011;47923;42.506;24.192;2023-07-31T03:09:21;13.00;;;9.20;;
61960;SDS011;47923;42.506;24.192;2023-07-31T03:11:57;10.95;;;8.80;;
61960;SDS011;47923;42.506;24.192;2023-07-31T03:14:25;11.18;;;8.98;;
61960;SDS011;47923;42.506;24.192;2023-07-31T03:16:57;12.63;;;10.10;;
61960;SDS011;47923;42.506;24.192;2023-07-31T03:19:53;13.73;;;9.98;;
61960;SDS011;47923;42.506;24.192;2023-07-31T03:22:24;13.73;;;11.38;;
61960;SDS011;47923;42.506;24.192;2023-07-31T03:25:03;13.93;;;11.25;;
61960;SDS011;47923;42.506;24.192;2023-07-31T03:27:51;11.95;;;8.68;;
61960;SDS011;47923;42.506;24.192;2023-07-31T03:30:20;8.50;;;6.40;;
61960;SDS011;47923;42.506;24.192;2023-07-31T03:32:45;8.93;;;5.65;;
61960;SDS011;47923;42.506;24.192;2023-07-31T03:35:17;8.48;;;5.97;;
61960;SDS011;47923;42.506;24.192;2023-07-31T03:38:00;9.63;;;7.00;;
61960;SDS011;47923;42.506;24.192;2023-07-31T03:40:45;10.32;;;7.30;;
61960;SDS011;47923;42.506;24.192;2023-07-31T03:43:22;8.98;;;6.88;;
61960;SDS011;47923;42.506;24.192;2023-07-31T03:45:59;9.20;;;6.68;;
61960;SDS011;47923;42.506;24.192;2023-07-31T03:48:36;9.18;;;7.05;;
61960;SDS011;47923;42.506;24.192;2023-07-31T03:51:11;11.82;;;8.00;;
61960;SDS011;47923;42.506;24.192;2023-07-31T03:53:44;10.20;;;6.55;;
61960;SDS011;47923;42.506;24.192;2023-07-31T03:56:41;9.20;;;7.25;;
61960;SDS011;47923;42.506;24.192;2023-07-31T03:59:30;10.43;;;6.88;;
61960;SDS011;47923;42.506;24.192;2023-07-31T04:02:24;8.60;;;6.80;;
61960;SDS011;47923;42.506;24.192;2023-07-31T04:05:03;9.57;;;7.07;;
61960;SDS011;47923;42.506;24.192;2023-07-31T04:07:39;11.00;;;7.80;;
61960;SDS011;47923;42.506;24.192;2023-07-31T04:10:09;10.07;;;8.30;;
61960;SDS011;47923;42.506;24.192;2023-07-31T04:12:37;12.80;;;8.90;;
61960;SDS011;47923;42.506;24.192;2023-07-31T04:15:05;10.70;;;8.98;;
61960;SDS011;47923;42.506;24.192;2023-07-31T04:17:34;9.02;;;7.68;;
61960;SDS011;47923;42.506;24.192;2023-07-31T04:20:09;11.07;;;7.37;;
61960;SDS011;47923;42.506;24.192;2023-07-31T04:22:47;9.55;;;7.53;;
61960;SDS011;47923;42.506;24.192;2023-07-31T04:25:16;11.93;;;7.45;;
61960;SDS011;47923;42.506;24.192;2023-07-31T04:27:56;10.18;;;6.63;;
61960;SDS011;47923;42.506;24.192;2023-07-31T04:30:24;8.40;;;6.03;;
61960;SDS011;47923;42.506;24.192;2023-07-31T04:32:52;10.45;;;6.75;;
61960;SDS011;47923;42.506;24.192;2023-07-31T04:35:20;9.98;;;7.07;;
61960;SDS011;47923;42.506;24.192;2023-07-31T04:38:10;8.73;;;6.35;;
61960;SDS011;47923;42.506;24.192;2023-07-31T04:40:55;12.35;;;6.88;;
61960;SDS011;47923;42.506;24.192;2023-07-31T04:43:23;10.60;;;7.15;;
61960;SDS011;47923;42.506;24.192;2023-07-31T04:45:57;12.00;;;7.57;;
61960;SDS011;47923;42.506;24.192;2023-07-31T04:48:31;14.52;;;8.20;;
61960;SDS011;47923;42.506;24.192;2023-07-31T04:50:56;13.68;;;7.88;;
61960;SDS011;47923;42.506;24.192;2023-07-31T04:53:37;11.48;;;8.05;;
61960;SDS011;47923;42.506;24.192;2023-07-31T04:56:09;10.52;;;7.75;;
61960;SDS011;47923;42.506;24.192;2023-07-31T04:58:48;15.65;;;9.18;;
61960;SDS011;47923;42.506;24.192;2023-07-31T05:01:13;13.60;;;8.30;;
61960;SDS011;47923;42.506;24.192;2023-07-31T05:03:44;10.10;;;7.57;;
61960;SDS011;47923;42.506;24.192;2023-07-31T05:06:09;12.68;;;8.32;;
61960;SDS011;47923;42.506;24.192;2023-07-31T05:08:40;14.32;;;8.98;;
61960;SDS011;47923;42.506;24.192;2023-07-31T05:11:05;12.15;;;7.72;;
61960;SDS011;47923;42.506;24.192;2023-07-31T05:14:05;10.13;;;7.20;;
61960;SDS011;47923;42.506;24.192;2023-07-31T05:16:38;9.45;;;6.80;;
61960;SDS011;47923;42.506;24.192;2023-07-31T05:19:08;10.48;;;7.25;;
61960;SDS011;47923;42.506;24.192;2023-07-31T05:21:34;12.45;;;6.65;;
61960;SDS011;47923;42.506;24.192;2023-07-31T05:24:09;10.68;;;6.05;;
61960;SDS011;47923;42.506;24.192;2023-07-31T05:26:38;8.65;;;6.20;;
61960;SDS011;47923;42.506;24.192;2023-07-31T05:29:04;9.65;;;6.50;;
61960;SDS011;47923;42.506;24.192;2023-07-31T05:31:49;10.45;;;6.78;;
61960;SDS011;47923;42.506;24.192;2023-07-31T05:34:30;12.18;;;7.10;;
61960;SDS011;47923;42.506;24.192;2023-07-31T05:36:58;8.50;;;5.85;;
61960;SDS011;47923;42.506;24.192;2023-07-31T05:39:27;13.30;;;6.53;;
61960;SDS011;47923;42.506;24.192;2023-07-31T05:42:00;7.45;;;5.40;;
61960;SDS011;47923;42.506;24.192;2023-07-31T05:44:26;6.93;;;5.28;;
61960;SDS011;47923;42.506;24.192;2023-07-31T05:46:54;7.63;;;5.35;;
61960;SDS011;47923;42.506;24.192;2023-07-31T05:49:28;7.22;;;5.63;;
61960;SDS011;47923;42.506;24.192;2023-07-31T05:51:59;8.50;;;5.68;;
61960;SDS011;47923;42.506;24.192;2023-07-31T05:54:25;10.27;;;5.82;;
61960;SDS011;47923;42.506;24.192;2023-07-31T05:56:56;8.18;;;5.85;;
61960;SDS011;47923;42.506;24.192;2023-07-31T05:59:21;6.63;;;5.15;;
61960;SDS011;47923;42.506;24.192;2023-07-31T06:01:50;7.85;;;5.63;;
61960;SDS011;47923;42.506;24.192;2023-07-31T06:04:18;8.35;;;5.53;;
61960;SDS011;47923;42.506;24.192;2023-07-31T06:06:50;5.90;;;4.85;;
61960;SDS011;47923;42.506;24.192;2023-07-31T06:09:16;8.35;;;5.15;;
61960;SDS011;47923;42.506;24.192;2023-07-31T06:11:48;5.90;;;4.45;;
61960;SDS011;47923;42.506;24.192;2023-07-31T06:14:13;6.95;;;5.03;;
61960;SDS011;47923;42.506;24.192;2023-07-31T06:16:42;12.27;;;5.80;;
61960;SDS011;47923;42.506;24.192;2023-07-31T06:19:12;8.13;;;5.40;;
61960;SDS011;47923;42.506;24.192;2023-07-31T06:21:40;8.75;;;5.63;;
61960;SDS011;47923;42.506;24.192;2023-07-31T06:24:10;6.60;;;4.80;;
61960;SDS011;47923;42.506;24.192;2023-07-31T06:26:44;6.95;;;5.20;;
61960;SDS011;47923;42.506;24.192;2023-07-31T06:29:12;11.65;;;5.65;;
61960;SDS011;47923;42.506;24.192;2023-07-31T06:31:38;7.30;;;5.57;;
61960;SDS011;47923;42.506;24.192;2023-07-31T06:34:11;8.80;;;6.03;;
61960;SDS011;47923;42.506;24.192;2023-07-31T06:36:46;9.10;;;5.68;;
61960;SDS011;47923;42.506;24.192;2023-07-31T06:39:14;8.98;;;5.55;;
61960;SDS011;47923;42.506;24.192;2023-07-31T06:41:55;7.38;;;5.70;;
61960;SDS011;47923;42.506;24.192;2023-07-31T06:44:26;7.05;;;5.53;;
61960;SDS011;47923;42.506;24.192;2023-07-31T06:47:02;7.28;;;5.22;;
61960;SDS011;47923;42.506;24.192;2023-07-31T06:49:38;6.65;;;4.88;;
61960;SDS011;47923;42.506;24.192;2023-07-31T06:52:11;7.18;;;5.72;;
61960;SDS011;47923;42.506;24.192;2023-07-31T06:54:39;7.95;;;6.18;;
61960;SDS011;47923;42.506;24.192;2023-07-31T06:57:04;7.85;;;6.03;;
61960;SDS011;47923;42.506;24.192;2023-07-31T06:59:30;8.23;;;6.20;;
61960;SDS011;47923;42.506;24.192;2023-07-31T07:02:00;8.43;;;5.70;;
61960;SDS011;47923;42.506;24.192;2023-07-31T07:04:38;8.15;;;6.45;;
61960;SDS011;47923;42.506;24.192;2023-07-31T07:07:18;7.97;;;6.55;;
61960;SDS011;47923;42.506;24.192;2023-07-31T07:09:43;8.40;;;6.30;;
61960;SDS011;47923;42.506;24.192;2023-07-31T07:12:09;9.93;;;6.55;;
61960;SDS011;47923;42.506;24.192;2023-07-31T07:14:54;9.77;;;6.75;;
61960;SDS011;47923;42.506;24.192;2023-07-31T07:17:27;9.88;;;7.82;;
61960;SDS011;47923;42.506;24.192;2023-07-31T07:19:53;10.38;;;7.82;;
61960;SDS011;47923;42.506;24.192;2023-07-31T07:22:24;10.05;;;7.22;;
61960;SDS011;47923;42.506;24.192;2023-07-31T07:24:53;9.40;;;7.20;;
61960;SDS011;47923;42.506;24.192;2023-07-31T07:27:19;8.80;;;6.80;;
61960;SDS011;47923;42.506;24.192;2023-07-31T07:29:45;8.60;;;6.65;;
61960;SDS011;47923;42.506;24.192;2023-07-31T07:32:14;10.05;;;7.15;;
61960;SDS011;47923;42.506;24.192;2023-07-31T07:34:47;9.60;;;6.60;;
61960;SDS011;47923;42.506;24.192;2023-07-31T07:37:35;8.68;;;6.95;;
61960;SDS011;47923;42.506;24.192;2023-07-31T07:40:09;11.43;;;6.83;;
61960;SDS011;47923;42.506;24.192;2023-07-31T07:42:38;9.45;;;7.03;;
61960;SDS011;47923;42.506;24.192;2023-07-31T07:45:03;9.48;;;7.70;;
61960;SDS011;47923;42.506;24.192;2023-07-31T07:47:41;9.75;;;7.10;;
61960;SDS011;47923;42.506;24.192;2023-07-31T07:50:15;12.98;;;8.15;;
61960;SDS011;47923;42.506;24.192;2023-07-31T07:52:45;10.98;;;8.05;;
61960;SDS011;47923;42.506;24.192;2023-07-31T07:55:15;11.00;;;8.60;;
61960;SDS011;47923;42.506;24.192;2023-07-31T07:57:43;10.50;;;7.88;;
61960;SDS011;47923;42.506;24.192;2023-07-31T08:00:10;9.38;;;7.10;;
61960;SDS011;47923;42.506;24.192;2023-07-31T08:02:39;9.43;;;6.82;;
61960;SDS011;47923;42.506;24.192;2023-07-31T08:05:05;8.32;;;6.65;;
61960;SDS011;47923;42.506;24.192;2023-07-31T08:07:36;9.32;;;6.18;;
61960;SDS011;47923;42.506;24.192;2023-07-31T08:10:07;8.63;;;6.43;;
61960;SDS011;47923;42.506;24.192;2023-07-31T08:12:35;10.10;;;6.85;;
61960;SDS011;47923;42.506;24.192;2023-07-31T08:15:17;9.10;;;7.47;;
61960;SDS011;47923;42.506;24.192;2023-07-31T08:17:42;8.90;;;7.20;;
61960;SDS011;47923;42.506;24.192;2023-07-31T08:20:15;8.13;;;5.93;;
61960;SDS011;47923;42.506;24.192;2023-07-31T08:22:48;8.10;;;5.97;;
61960;SDS011;47923;42.506;24.192;2023-07-31T08:25:19;8.10;;;5.72;;
61960;SDS011;47923;42.506;24.192;2023-07-31T08:27:48;7.50;;;5.70;;
61960;SDS011;47923;42.506;24.192;2023-07-31T08:30:22;8.10;;;6.07;;
61960;SDS011;47923;42.506;24.192;2023-07-31T08:32:53;7.45;;;5.80;;
61960;SDS011;47923;42.506;24.192;2023-07-31T08:35:19;9.90;;;5.78;;
61960;SDS011;47923;42.506;24.192;2023-07-31T08:37:50;8.32;;;5.28;;
61960;SDS011;47923;42.506;24.192;2023-07-31T08:40:18;7.20;;;4.88;;
61960;SDS011;47923;42.506;24.192;2023-07-31T08:43:06;8.02;;;5.00;;
61960;SDS011;47923;42.506;24.192;2023-07-31T08:45:37;5.97;;;3.87;;
61960;SDS011;47923;42.506;24.192;2023-07-31T08:48:06;10.20;;;5.22;;
61960;SDS011;47923;42.506;24.192;2023-07-31T08:50:37;7.68;;;4.88;;
61960;SDS011;47923;42.506;24.192;2023-07-31T08:53:11;9.10;;;5.10;;
61960;SDS011;47923;42.506;24.192;2023-07-31T08:55:48;8.57;;;6.20;;
61960;SDS011;47923;42.506;24.192;2023-07-31T08:58:20;8.40;;;5.72;;
61960;SDS011;47923;42.506;24.192;2023-07-31T09:00:56;8.10;;;6.63;;
61960;SDS011;47923;42.506;24.192;2023-07-31T09:03:29;9.77;;;6.22;;
61960;SDS011;47923;42.506;24.192;2023-07-31T09:06:02;7.53;;;5.20;;
61960;SDS011;47923;42.506;24.192;2023-07-31T09:08:35;7.03;;;4.70;;
61960;SDS011;47923;42.506;24.192;2023-07-31T09:11:08;8.75;;;4.80;;
61960;SDS011;47923;42.506;24.192;2023-07-31T09:13:39;6.25;;;3.85;;
61960;SDS011;47923;42.506;24.192;2023-07-31T09:16:12;10.05;;;4.80;;
61960;SDS011;47923;42.506;24.192;2023-07-31T09:18:59;6.85;;;4.40;;
61960;SDS011;47923;42.506;24.192;2023-07-31T09:21:33;5.88;;;4.15;;
61960;SDS011;47923;42.506;24.192;2023-07-31T09:24:15;6.32;;;4.50;;
61960;SDS011;47923;42.506;24.192;2023-07-31T09:26:51;5.63;;;4.03;;
61960;SDS011;47923;42.506;24.192;2023-07-31T09:29:22;6.53;;;4.20;;
61960;SDS011;47923;42.506;24.192;2023-07-31T09:31:55;6.20;;;3.92;;
61960;SDS011;47923;42.506;24.192;2023-07-31T09:34:37;6.25;;;3.67;;
61960;SDS011;47923;42.506;24.192;2023-07-31T09:37:06;6.72;;;3.97;;
61960;SDS011;47923;42.506;24.192;2023-07-31T09:39:44;5.68;;;3.88;;
61960;SDS011;47923;42.506;24.192;2023-07-31T09:42:12;5.85;;;3.88;;
61960;SDS011;47923;42.506;24.192;2023-07-31T09:44:38;9.77;;;5.25;;
61960;SDS011;47923;42.506;24.192;2023-07-31T09:47:05;5.15;;;3.80;;
61960;SDS011;47923;42.506;24.192;2023-07-31T09:49:34;6.68;;;3.90;;
61960;SDS011;47923;42.506;24.192;2023-07-31T09:51:59;6.35;;;4.30;;
61960;SDS011;47923;42.506;24.192;2023-07-31T09:54:48;6.20;;;3.83;;
61960;SDS011;47923;42.506;24.192;2023-07-31T09:57:13;5.70;;;3.60;;
61960;SDS011;47923;42.506;24.192;2023-07-31T09:59:49;4.50;;;3.03;;
61960;SDS011;47923;42.506;24.192;2023-07-31T10:02:29;5.43;;;3.22;;
61960;SDS011;47923;42.506;24.192;2023-07-31T10:04:59;4.43;;;2.78;;
61960;SDS011;47923;42.506;24.192;2023-07-31T10:07:34;4.82;;;3.47;;
61960;SDS011;47923;42.506;24.192;2023-07-31T10:10:04;4.25;;;3.00;;
61960;SDS011;47923;42.506;24.192;2023-07-31T10:12:35;5.32;;;3.10;;
61960;SDS011;47923;42.506;24.192;2023-07-31T10:15:04;6.18;;;2.97;;
61960;SDS011;47923;42.506;24.192;2023-07-31T10:17:39;4.65;;;3.03;;
61960;SDS011;47923;42.506;24.192;2023-07-31T10:20:15;13.10;;;3.35;;
61960;SDS011;47923;42.506;24.192;2023-07-31T10:22:47;4.32;;;2.50;;
61960;SDS011;47923;42.506;24.192;2023-07-31T10:25:18;3.33;;;2.17;;
61960;SDS011;47923;42.506;24.192;2023-07-31T10:27:50;3.20;;;2.00;;
61960;SDS011;47923;42.506;24.192;2023-07-31T10:30:17;3.70;;;2.30;;
61960;SDS011;47923;42.506;24.192;2023-07-31T10:32:45;3.97;;;2.58;;
61960;SDS011;47923;42.506;24.192;2023-07-31T10:35:18;4.50;;;2.30;;
61960;SDS011;47923;42.506;24.192;2023-07-31T10:37:52;3.78;;;2.30;;
61960;SDS011;47923;42.506;24.192;2023-07-31T10:40:24;5.35;;;2.45;;
61960;SDS011;47923;42.506;24.192;2023-07-31T10:42:57;3.95;;;2.53;;
61960;SDS011;47923;42.506;24.192;2023-07-31T10:45:39;3.28;;;2.00;;
61960;SDS011;47923;42.506;24.192;2023-07-31T10:48:12;3.50;;;1.80;;
61960;SDS011;47923;42.506;24.192;2023-07-31T10:50:47;3.83;;;1.70;;
61960;SDS011;47923;42.506;24.192;2023-07-31T10:55:59;3.22;;;1.98;;
61960;SDS011;47923;42.506;24.192;2023-07-31T10:58:26;4.53;;;1.50;;
61960;SDS011;47923;42.506;24.192;2023-07-31T11:00:55;3.38;;;1.90;;
61960;SDS011;47923;42.506;24.192;2023-07-31T11:03:24;3.70;;;1.70;;
61960;SDS011;47923;42.506;24.192;2023-07-31T11:06:10;5.47;;;1.90;;
61960;SDS011;47923;42.506;24.192;2023-07-31T11:08:46;2.67;;;1.67;;
61960;SDS011;47923;42.506;24.192;2023-07-31T11:11:16;2.97;;;1.67;;
61960;SDS011;47923;42.506;24.192;2023-07-31T11:16:09;3.85;;;2.03;;
61960;SDS011;47923;42.506;24.192;2023-07-31T11:18:38;3.95;;;1.70;;
61960;SDS011;47923;42.506;24.192;2023-07-31T11:21:14;5.30;;;1.70;;
61960;SDS011;47923;42.506;24.192;2023-07-31T11:23:41;2.55;;;1.40;;
61960;SDS011;47923;42.506;24.192;2023-07-31T11:26:10;3.75;;;1.80;;
61960;SDS011;47923;42.506;24.192;2023-07-31T11:28:36;5.18;;;1.30;;
61960;SDS011;47923;42.506;24.192;2023-07-31T11:31:02;4.13;;;1.73;;
61960;SDS011;47923;42.506;24.192;2023-07-31T11:33:27;3.47;;;1.50;;
61960;SDS011;47923;42.506;24.192;2023-07-31T11:36:02;3.90;;;1.60;;
61960;SDS011;47923;42.506;24.192;2023-07-31T11:38:28;1.95;;;1.02;;
61960;SDS011;47923;42.506;24.192;2023-07-31T11:40:56;4.18;;;1.08;;
61960;SDS011;47923;42.506;24.192;2023-07-31T11:43:33;2.17;;;1.30;;
61960;SDS011;47923;42.506;24.192;2023-07-31T11:46:06;4.57;;;1.48;;
61960;SDS011;47923;42.506;24.192;2023-07-31T11:48:33;4.70;;;1.38;;
61960;SDS011;47923;42.506;24.192;2023-07-31T11:51:02;4.25;;;1.10;;
61960;SDS011;47923;42.506;24.192;2023-07-31T11:53:45;4.35;;;1.73;;
61960;SDS011;47923;42.506;24.192;2023-07-31T11:56:22;1.48;;;1.00;;
61960;SDS011;47923;42.506;24.192;2023-07-31T11:58:50;1.98;;;1.23;;
61960;SDS011;47923;42.506;24.192;2023-07-31T12:01:24;3.38;;;1.20;;
61960;SDS011;47923;42.506;24.192;2023-07-31T12:03:56;2.53;;;1.30;;
61960;SDS011;47923;42.506;24.192;2023-07-31T12:06:31;1.98;;;1.10;;
61960;SDS011;47923;42.506;24.192;2023-07-31T12:09:02;1.83;;;1.08;;
61960;SDS011;47923;42.506;24.192;2023-07-31T12:11:28;3.22;;;1.13;;
61960;SDS011;47923;42.506;24.192;2023-07-31T12:13:54;2.35;;;1.20;;
61960;SDS011;47923;42.506;24.192;2023-07-31T12:16:22;1.85;;;1.00;;
61960;SDS011;47923;42.506;24.192;2023-07-31T12:18:51;2.40;;;1.23;;
61960;SDS011;47923;42.506;24.192;2023-07-31T12:21:23;1.58;;;0.98;;
61960;SDS011;47923;42.506;24.192;2023-07-31T12:23:59;1.80;;;1.20;;
61960;SDS011;47923;42.506;24.192;2023-07-31T12:26:34;1.77;;;1.00;;
61960;SDS011;47923;42.506;24.192;2023-07-31T12:29:05;2.92;;;1.05;;
61960;SDS011;47923;42.506;24.192;2023-07-31T12:31:33;2.22;;;1.20;;
61960;SDS011;47923;42.506;24.192;2023-07-31T12:34:14;2.33;;;1.50;;
61960;SDS011;47923;42.506;24.192;2023-07-31T12:36:43;2.92;;;1.27;;
61960;SDS011;47923;42.506;24.192;2023-07-31T12:39:29;2.38;;;1.70;;
61960;SDS011;47923;42.506;24.192;2023-07-31T12:41:54;3.20;;;1.10;;
61960;SDS011;47923;42.506;24.192;2023-07-31T12:44:25;2.85;;;1.20;;
61960;SDS011;47923;42.506;24.192;2023-07-31T12:46:59;3.55;;;1.38;;
61960;SDS011;47923;42.506;24.192;2023-07-31T12:49:30;3.55;;;1.20;;
61960;SDS011;47923;42.506;24.192;2023-07-31T12:51:58;2.03;;;1.10;;
61960;SDS011;47923;42.506;24.192;2023-07-31T12:54:26;3.45;;;1.10;;
61960;SDS011;47923;42.506;24.192;2023-07-31T12:57:05;3.05;;;1.40;;
61960;SDS011;47923;42.506;24.192;2023-07-31T12:59:39;2.78;;;1.30;;
61960;SDS011;47923;42.506;24.192;2023-07-31T13:02:25;3.53;;;1.75;;
61960;SDS011;47923;42.506;24.192;2023-07-31T13:04:56;4.50;;;1.40;;
61960;SDS011;47923;42.506;24.192;2023-07-31T13:07:30;2.97;;;1.80;;
61960;SDS011;47923;42.506;24.192;2023-07-31T13:10:01;9.80;;;2.30;;
61960;SDS011;47923;42.506;24.192;2023-07-31T13:12:29;3.50;;;1.90;;
61960;SDS011;47923;42.506;24.192;2023-07-31T13:15:07;1.98;;;1.40;;
61960;SDS011;47923;42.506;24.192;2023-07-31T13:17:32;2.40;;;1.10;;
61960;SDS011;47923;42.506;24.192;2023-07-31T13:20:09;2.00;;;1.40;;
61960;SDS011;47923;42.506;24.192;2023-07-31T13:22:35;2.45;;;1.20;;
61960;SDS011;47923;42.506;24.192;2023-07-31T13:25:06;2.90;;;1.38;;
61960;SDS011;47923;42.506;24.192;2023-07-31T13:27:32;1.95;;;1.10;;
61960;SDS011;47923;42.506;24.192;2023-07-31T13:30:00;3.05;;;1.40;;
61960;SDS011;47923;42.506;24.192;2023-07-31T13:32:47;6.25;;;1.70;;
61960;SDS011;47923;42.506;24.192;2023-07-31T13:35:23;4.38;;;1.20;;
61960;SDS011;47923;42.506;24.192;2023-07-31T13:37:59;2.47;;;1.13;;
61960;SDS011;47923;42.506;24.192;2023-07-31T13:40:28;2.90;;;1.40;;
61960;SDS011;47923;42.506;24.192;2023-07-31T13:43:04;2.40;;;1.35;;
61960;SDS011;47923;42.506;24.192;2023-07-31T13:45:32;3.58;;;1.45;;
61960;SDS011;47923;42.506;24.192;2023-07-31T13:48:04;3.03;;;1.20;;
61960;SDS011;47923;42.506;24.192;2023-07-31T13:50:44;2.15;;;1.27;;
61960;SDS011;47923;42.506;24.192;2023-07-31T13:53:21;2.70;;;1.10;;
61960;SDS011;47923;42.506;24.192;2023-07-31T13:55:49;2.80;;;1.33;;
61960;SDS011;47923;42.506;24.192;2023-07-31T13:58:17;3.47;;;1.55;;
61960;SDS011;47923;42.506;24.192;2023-07-31T14:00:52;3.70;;;1.67;;
61960;SDS011;47923;42.506;24.192;2023-07-31T14:03:23;2.38;;;1.48;;
61960;SDS011;47923;42.506;24.192;2023-07-31T14:06:00;2.25;;;1.30;;
61960;SDS011;47923;42.506;24.192;2023-07-31T14:08:26;2.47;;;1.48;;
61960;SDS011;47923;42.506;24.192;2023-07-31T14:10:52;7.55;;;2.33;;
61960;SDS011;47923;42.506;24.192;2023-07-31T14:13:17;2.70;;;1.33;;
61960;SDS011;47923;42.506;24.192;2023-07-31T14:15:55;5.15;;;1.55;;
61960;SDS011;47923;42.506;24.192;2023-07-31T14:18:26;4.28;;;1.63;;
61960;SDS011;47923;42.506;24.192;2023-07-31T14:20:59;4.60;;;1.48;;
61960;SDS011;47923;42.506;24.192;2023-07-31T14:23:36;3.40;;;1.63;;
61960;SDS011;47923;42.506;24.192;2023-07-31T14:26:18;4.65;;;1.88;;
61960;SDS011;47923;42.506;24.192;2023-07-31T14:28:47;2.60;;;1.60;;
61960;SDS011;47923;42.506;24.192;2023-07-31T14:31:20;2.45;;;1.42;;
61960;SDS011;47923;42.506;24.192;2023-07-31T14:33:54;2.70;;;1.20;;
61960;SDS011;47923;42.506;24.192;2023-07-31T14:36:20;2.75;;;1.50;;
61960;SDS011;47923;42.506;24.192;2023-07-31T14:38:45;2.88;;;1.40;;
61960;SDS011;47923;42.506;24.192;2023-07-31T14:41:34;3.28;;;1.67;;
61960;SDS011;47923;42.506;24.192;2023-07-31T14:44:01;2.88;;;1.40;;
61960;SDS011;47923;42.506;24.192;2023-07-31T14:46:32;3.45;;;1.73;;
61960;SDS011;47923;42.506;24.192;2023-07-31T14:49:03;1.80;;;1.10;;
61960;SDS011;47923;42.506;24.192;2023-07-31T14:51:43;2.60;;;1.40;;
61960;SDS011;47923;42.506;24.192;2023-07-31T14:54:11;2.35;;;1.40;;
61960;SDS011;47923;42.506;24.192;2023-07-31T14:56:37;2.03;;;1.20;;
61960;SDS011;47923;42.506;24.192;2023-07-31T14:59:05;2.55;;;1.30;;
61960;SDS011;47923;42.506;24.192;2023-07-31T15:01:38;2.08;;;1.20;;
61960;SDS011;47923;42.506;24.192;2023-07-31T15:04:24;3.58;;;1.35;;
61960;SDS011;47923;42.506;24.192;2023-07-31T15:07:16;2.75;;;1.20;;
61960;SDS011;47923;42.506;24.192;2023-07-31T15:09:45;2.33;;;1.20;;
61960;SDS011;47923;42.506;24.192;2023-07-31T15:12:16;2.35;;;1.27;;
61960;SDS011;47923;42.506;24.192;2023-07-31T15:14:48;2.47;;;1.30;;
61960;SDS011;47923;42.506;24.192;2023-07-31T15:20:19;2.27;;;1.20;;
61960;SDS011;47923;42.506;24.192;2023-07-31T15:22:47;1.77;;;1.15;;
61960;SDS011;47923;42.506;24.192;2023-07-31T15:25:13;2.83;;;1.42;;
61960;SDS011;47923;42.506;24.192;2023-07-31T15:27:39;3.17;;;1.55;;
61960;SDS011;47923;42.506;24.192;2023-07-31T15:30:06;2.25;;;1.30;;